createdAt,value
2018-07-22T00:01:39.563Z,29.63
2018-07-22T00:04:07.572Z,29.77
2018-07-22T00:06:35.753Z,24.97
2018-07-22T00:09:06.112Z,25.00
2018-07-22T00:11:34.185Z,28.30
2018-07-22T00:14:02.741Z,28.10
2018-07-22T00:16:31.007Z,29.50
2018-07-22T00:18:59.127Z,25.40
2018-07-22T00:21:27.149Z,27.03
2018-07-22T00:23:55.173Z,25.90
2018-07-22T00:26:23.131Z,25.77
2018-07-22T00:28:51.327Z,22.83
2018-07-22T00:31:19.369Z,26.90
2018-07-22T00:33:47.389Z,31.60
2018-07-22T00:36:15.360Z,28.60
2018-07-22T00:38:43.406Z,24.67
2018-07-22T00:41:11.464Z,27.67
2018-07-22T00:43:39.417Z,29.97
2018-07-22T00:46:07.557Z,25.30
2018-07-22T00:48:35.716Z,30.33
2018-07-22T00:51:03.977Z,27.97
2018-07-22T00:53:32.448Z,25.67
2018-07-22T00:56:01.581Z,25.70
2018-07-22T00:58:30.866Z,23.73
2018-07-22T01:00:58.935Z,25.77
2018-07-22T01:03:26.881Z,25.27
2018-07-22T01:05:54.829Z,24.10
2018-07-22T01:08:23.061Z,29.20
2018-07-22T01:10:51.219Z,27.33
2018-07-22T01:13:19.185Z,27.57
2018-07-22T01:15:47.132Z,25.30
2018-07-22T01:18:15.084Z,22.70
2018-07-22T01:20:43.045Z,21.67
2018-07-22T01:23:10.973Z,26.00
2018-07-22T01:25:39.025Z,22.10
2018-07-22T01:28:07.374Z,26.50
2018-07-22T01:30:35.554Z,24.87
2018-07-22T01:33:03.703Z,28.03
2018-07-22T01:35:32.175Z,29.17
2018-07-22T01:38:00.461Z,24.77
2018-07-22T01:40:28.463Z,30.90
2018-07-22T01:42:56.440Z,25.10
2018-07-22T01:45:24.743Z,24.53
2018-07-22T01:47:52.976Z,24.90
2018-07-22T01:50:21.115Z,29.33
2018-07-22T01:52:49.085Z,36.50
2018-07-22T01:55:17.085Z,36.43
2018-07-22T01:57:45.571Z,24.67
2018-07-22T02:00:13.561Z,29.47
2018-07-22T02:02:42.504Z,34.70
2018-07-22T02:05:10.484Z,33.90
2018-07-22T02:07:38.549Z,29.87
2018-07-22T02:10:06.696Z,30.43
2018-07-22T02:12:34.855Z,32.43
2018-07-22T02:15:03.374Z,31.43
2018-07-22T02:17:32.075Z,34.33
2018-07-22T02:20:00.356Z,32.20
2018-07-22T02:22:28.391Z,34.00
2018-07-22T02:24:56.381Z,43.70
2018-07-22T02:27:24.564Z,35.17
2018-07-22T02:29:52.700Z,41.93
2018-07-22T02:32:20.832Z,38.53
2018-07-22T02:34:48.813Z,36.67
2018-07-22T02:37:16.741Z,39.40
2018-07-22T02:39:44.922Z,40.90
2018-07-22T02:42:13.182Z,53.73
2018-07-22T02:44:41.198Z,38.13
2018-07-22T02:47:09.145Z,39.87
2018-07-22T02:49:37.262Z,47.53
2018-07-22T02:52:05.428Z,38.07
2018-07-22T02:54:33.767Z,36.37
2018-07-22T02:57:02.166Z,36.80
2018-07-22T02:59:31.609Z,39.13
2018-07-22T03:01:59.779Z,42.73
2018-07-22T03:04:27.756Z,44.47
2018-07-22T03:06:55.781Z,43.13
2018-07-22T03:09:23.749Z,40.43
2018-07-22T03:11:51.883Z,45.10
2018-07-22T03:14:19.930Z,46.23
2018-07-22T03:16:48.021Z,44.67
2018-07-22T03:19:15.985Z,51.00
2018-07-22T03:21:44.952Z,39.57
2018-07-22T03:24:12.919Z,40.43
2018-07-22T03:26:40.915Z,42.57
2018-07-22T03:29:08.905Z,44.97
2018-07-22T03:31:37.063Z,51.30
2018-07-22T03:34:05.330Z,40.90
2018-07-22T03:36:33.684Z,37.70
2018-07-22T03:39:01.956Z,44.23
2018-07-22T03:41:30.107Z,43.67
2018-07-22T03:43:58.117Z,46.90
2018-07-22T03:46:26.120Z,43.07
2018-07-22T03:48:54.272Z,38.33
2018-07-22T03:51:22.450Z,42.03
2018-07-22T03:53:50.488Z,43.23
2018-07-22T03:56:18.489Z,48.43
2018-07-22T03:58:46.406Z,46.13
2018-07-22T04:01:14.410Z,42.97
2018-07-22T04:03:42.392Z,41.83
2018-07-22T04:06:10.345Z,46.70
2018-07-22T04:08:38.521Z,40.13
2018-07-22T04:11:06.656Z,40.83
2018-07-22T04:13:34.893Z,43.37
2018-07-22T04:16:03.396Z,41.70
2018-07-22T04:18:31.565Z,39.40
2018-07-22T04:20:59.829Z,43.27
2018-07-22T04:23:27.774Z,43.40
2018-07-22T04:25:56.147Z,45.23
2018-07-22T04:28:24.180Z,38.33
2018-07-22T04:30:52.400Z,44.93
2018-07-22T04:33:20.489Z,46.70
2018-07-22T04:35:48.472Z,43.53
2018-07-22T04:38:16.416Z,43.47
2018-07-22T04:40:44.357Z,40.13
2018-07-22T04:43:12.327Z,35.93
2018-07-22T04:45:40.320Z,35.83
2018-07-22T04:48:08.395Z,35.17
2018-07-22T04:50:36.474Z,48.67
2018-07-22T04:53:04.648Z,40.97
2018-07-22T04:55:32.995Z,39.10
2018-07-22T04:58:01.302Z,37.07
2018-07-22T05:00:29.337Z,44.00
2018-07-22T05:02:57.308Z,38.50
2018-07-22T05:05:25.265Z,32.80
2018-07-22T05:07:53.372Z,34.90
2018-07-22T05:10:21.552Z,39.60
2018-07-22T05:12:51.828Z,35.03
2018-07-22T05:15:19.850Z,37.40
2018-07-22T05:17:47.784Z,41.43
2018-07-22T05:20:15.778Z,34.63
2018-07-22T05:22:43.744Z,34.90
2018-07-22T05:25:11.722Z,33.03
2018-07-22T05:27:39.700Z,33.33
2018-07-22T05:30:07.986Z,33.30
2018-07-22T05:32:36.229Z,32.13
2018-07-22T05:35:04.467Z,34.23
2018-07-22T05:37:32.916Z,34.53
2018-07-22T05:40:01.278Z,33.03
2018-07-22T05:42:29.303Z,33.63
2018-07-22T05:44:57.380Z,28.10
2018-07-22T05:47:25.475Z,32.63
2018-07-22T05:49:53.559Z,32.77
2018-07-22T05:52:21.673Z,26.50
2018-07-22T05:54:49.628Z,35.83
2018-07-22T05:57:17.577Z,28.87
2018-07-22T05:59:45.538Z,25.77
2018-07-22T06:02:13.528Z,26.77
2018-07-22T06:04:41.541Z,26.97
2018-07-22T06:07:09.544Z,23.20
2018-07-22T06:09:37.832Z,21.67
2018-07-22T06:12:06.147Z,24.07
2018-07-22T06:14:34.484Z,20.10
2018-07-22T06:17:02.858Z,18.77
2018-07-22T06:19:31.119Z,24.07
2018-07-22T06:21:59.264Z,17.20
2018-07-22T06:24:27.197Z,16.93
2018-07-22T06:26:55.181Z,19.27
2018-07-22T06:29:23.285Z,13.07
2018-07-22T06:31:51.386Z,16.03
2018-07-22T06:34:19.317Z,13.60
2018-07-22T06:36:47.969Z,16.30
2018-07-22T06:39:15.915Z,14.93
2018-07-22T06:41:44.696Z,13.53
2018-07-22T06:44:12.766Z,12.83
2018-07-22T06:46:40.851Z,13.23
2018-07-22T06:49:09.173Z,15.33
2018-07-22T06:51:37.662Z,25.50
2018-07-22T06:54:05.806Z,15.80
2018-07-22T06:56:34.197Z,16.70
2018-07-22T06:59:02.455Z,14.27
2018-07-22T07:01:31.021Z,15.90
2018-07-22T07:03:59.210Z,15.13
2018-07-22T07:06:27.175Z,16.00
2018-07-22T07:08:55.141Z,16.50
2018-07-22T07:11:23.305Z,19.67
2018-07-22T07:13:51.456Z,18.53
2018-07-22T07:16:19.442Z,21.27
2018-07-22T07:18:47.512Z,21.60
2018-07-22T07:21:15.587Z,21.20
2018-07-22T07:23:43.876Z,21.27
2018-07-22T07:26:11.906Z,20.17
2018-07-22T07:28:39.848Z,22.10
2018-07-22T07:31:07.960Z,21.07
2018-07-22T07:33:36.210Z,19.87
2018-07-22T07:36:04.455Z,17.83
2018-07-22T07:38:32.670Z,20.57
2018-07-22T07:41:00.925Z,21.73
2018-07-22T07:43:29.018Z,20.17
2018-07-22T07:45:57.099Z,27.33
2018-07-22T07:48:25.060Z,21.90
2018-07-22T07:50:53.201Z,31.23
2018-07-22T07:53:21.284Z,24.03
2018-07-22T07:55:49.270Z,24.07
2018-07-22T07:58:17.246Z,34.43
2018-07-22T08:00:45.284Z,27.77
2018-07-22T08:03:13.434Z,31.43
2018-07-22T08:05:41.541Z,28.97
2018-07-22T08:08:09.815Z,28.50
2018-07-22T08:10:38.956Z,31.97
2018-07-22T08:13:07.179Z,33.57
2018-07-22T08:15:50.653Z,30.03
2018-07-22T08:18:18.672Z,31.47
2018-07-22T08:20:46.658Z,32.47
2018-07-22T08:23:14.809Z,25.70
2018-07-22T08:25:43.078Z,32.03
2018-07-22T08:28:11.135Z,28.50
2018-07-22T08:30:39.239Z,26.53
2018-07-22T08:33:07.432Z,25.97
2018-07-22T08:35:35.556Z,25.90
2018-07-22T08:38:03.815Z,26.80
2018-07-22T08:40:32.224Z,30.17
2018-07-22T08:43:00.599Z,34.23
2018-07-22T08:45:28.617Z,31.70
2018-07-22T08:47:57.085Z,26.83
2018-07-22T08:50:25.312Z,25.10
2018-07-22T08:52:53.965Z,26.97
2018-07-22T08:55:22.080Z,23.63
2018-07-22T08:57:50.140Z,28.80
2018-07-22T09:00:18.581Z,30.60
2018-07-22T09:02:47.246Z,27.50
2018-07-22T09:05:15.274Z,26.77
2018-07-22T09:07:43.321Z,21.03
2018-07-22T09:10:11.867Z,34.30
2018-07-22T09:12:40.008Z,28.30
2018-07-22T09:15:14.567Z,25.83
2018-07-22T09:17:42.572Z,25.20
2018-07-22T09:20:10.605Z,21.70
2018-07-22T09:22:38.601Z,23.43
2018-07-22T09:25:06.711Z,26.47
2018-07-22T09:27:34.825Z,24.47
2018-07-22T09:30:03.421Z,26.43
2018-07-22T09:32:31.757Z,23.93
2018-07-22T09:35:01.549Z,23.07
2018-07-22T09:37:29.732Z,19.87
2018-07-22T09:39:58.292Z,24.07
2018-07-22T09:42:26.976Z,26.97
2018-07-22T09:44:54.984Z,26.07
2018-07-22T09:47:22.948Z,25.97
2018-07-22T09:49:50.945Z,29.40
2018-07-22T09:52:18.904Z,24.30
2018-07-22T09:54:46.893Z,29.80
2018-07-22T09:57:15.237Z,33.70
2018-07-22T09:59:43.288Z,28.70
2018-07-22T10:02:11.404Z,35.13
2018-07-22T10:04:39.652Z,34.33
2018-07-22T10:07:08.749Z,31.20
2018-07-22T10:09:37.121Z,28.73
2018-07-22T10:12:05.791Z,36.70
2018-07-22T10:14:33.923Z,33.43
2018-07-22T10:17:02.162Z,34.43
2018-07-22T10:19:30.899Z,36.80
2018-07-22T10:21:58.972Z,35.93
2018-07-22T10:24:27.061Z,35.30
2018-07-22T10:26:55.823Z,36.57
2018-07-22T10:29:23.792Z,37.27
2018-07-22T10:31:51.851Z,37.27
2018-07-22T10:34:19.907Z,35.63
2018-07-22T10:36:50.264Z,34.40
2018-07-22T10:39:18.219Z,34.93
2018-07-22T10:41:46.294Z,38.67
2018-07-22T10:44:14.502Z,35.40
2018-07-22T10:46:42.458Z,36.07
2018-07-22T10:49:10.837Z,37.33
2018-07-22T10:51:38.989Z,38.00
2018-07-22T10:54:07.094Z,34.33
2018-07-22T10:56:35.176Z,42.03
2018-07-22T10:59:03.465Z,38.70
2018-07-22T11:01:32.405Z,37.70
2018-07-22T11:04:01.457Z,33.50
2018-07-22T11:06:29.500Z,38.93
2018-07-22T11:08:57.540Z,39.23
2018-07-22T11:11:25.821Z,37.60
2018-07-22T11:13:54.972Z,44.20
2018-07-22T11:16:22.941Z,38.50
2018-07-22T11:18:50.918Z,44.53
2018-07-22T11:21:19.464Z,27.57
2018-07-22T11:23:47.486Z,20.93
2018-07-22T11:26:15.560Z,25.93
2018-07-22T11:29:00.327Z,24.87
2018-07-22T11:31:28.831Z,23.03
2018-07-22T11:33:57.400Z,21.33
2018-07-22T11:36:25.654Z,22.10
2018-07-22T11:38:53.959Z,22.30
2018-07-22T11:41:22.038Z,23.40
2018-07-22T11:43:50.109Z,25.13
2018-07-22T11:46:18.194Z,26.00
2018-07-22T11:48:46.584Z,23.37
2018-07-22T11:51:14.821Z,28.10
2018-07-22T11:53:43.506Z,21.67
2018-07-22T11:56:11.546Z,24.50
2018-07-22T11:58:39.983Z,22.77
2018-07-22T12:01:08.218Z,25.77
2018-07-22T12:03:36.483Z,24.70
2018-07-22T12:06:04.782Z,26.77
2018-07-22T12:08:33.224Z,26.07
2018-07-22T12:11:02.082Z,28.13
2018-07-22T12:13:31.201Z,27.37
2018-07-22T12:15:59.709Z,25.63
2018-07-22T12:18:28.554Z,34.20
2018-07-22T12:20:56.957Z,29.00
2018-07-22T12:23:25.564Z,27.43
2018-07-22T12:25:53.917Z,26.63
2018-07-22T12:28:23.214Z,23.97
2018-07-22T12:30:51.410Z,23.73
2018-07-22T12:33:20.050Z,26.87
2018-07-22T12:35:48.685Z,19.80
2018-07-22T12:38:16.874Z,22.47
2018-07-22T12:40:45.271Z,19.63
2018-07-22T12:43:17.164Z,21.07
2018-07-22T12:45:46.551Z,18.70
2018-07-22T12:48:15.098Z,17.43
2018-07-22T12:50:43.540Z,18.80
2018-07-22T12:53:11.813Z,18.50
2018-07-22T12:55:41.013Z,18.87
2018-07-22T12:58:09.761Z,17.83
2018-07-22T13:00:40.038Z,18.70
2018-07-22T13:03:10.240Z,20.70
2018-07-22T13:05:38.942Z,19.40
2018-07-22T13:08:07.418Z,17.13
2018-07-22T13:10:36.250Z,15.07
2018-07-22T13:13:08.312Z,15.13
2018-07-22T13:15:36.853Z,14.23
2018-07-22T13:18:05.301Z,12.87
2018-07-22T13:20:34.164Z,16.13
2018-07-22T13:23:03.185Z,14.57
2018-07-22T13:25:31.906Z,16.73
2018-07-22T13:28:01.103Z,17.83
2018-07-22T13:30:31.714Z,19.63
2018-07-22T13:33:00.122Z,17.40
2018-07-22T13:35:28.480Z,19.33
2018-07-22T13:37:57.629Z,17.60
2018-07-22T13:40:25.925Z,16.20
2018-07-22T13:42:54.220Z,16.93
2018-07-22T13:45:22.442Z,15.60
2018-07-22T13:47:59.457Z,14.73
2018-07-22T13:50:28.346Z,13.93
2018-07-22T13:53:01.014Z,17.10
2018-07-22T13:55:30.018Z,16.00
2018-07-22T13:58:00.281Z,11.60
2018-07-22T14:00:28.669Z,12.07
2018-07-22T14:03:03.790Z,12.93
2018-07-22T14:08:07.373Z,12.30
2018-07-22T14:10:35.639Z,14.43
2018-07-22T14:13:04.066Z,14.83
2018-07-22T14:15:34.272Z,14.43
2018-07-22T14:18:03.463Z,12.50
2018-07-22T14:20:35.996Z,14.37
2018-07-22T14:23:04.347Z,12.27
2018-07-22T14:25:34.210Z,12.20
2018-07-22T14:28:08.951Z,13.40
2018-07-22T14:30:37.916Z,14.57
2018-07-22T14:33:06.072Z,11.73
2018-07-22T14:35:34.561Z,16.37
2018-07-22T14:38:03.007Z,16.13
2018-07-22T14:40:31.444Z,13.73
2018-07-22T14:42:59.779Z,13.70
2018-07-22T14:45:27.904Z,14.73
2018-07-22T14:47:56.077Z,14.30
2018-07-22T14:50:24.373Z,16.80
2018-07-22T14:52:52.642Z,20.20
2018-07-22T14:55:20.755Z,16.93
2018-07-22T14:57:49.216Z,12.90
2018-07-22T15:00:17.374Z,14.83
2018-07-22T15:02:45.477Z,13.07
2018-07-22T15:05:13.653Z,14.50
2018-07-22T15:07:41.718Z,12.10
2018-07-22T15:10:10.856Z,13.13
2018-07-22T15:12:40.495Z,12.90
2018-07-22T15:15:09.319Z,12.23
2018-07-22T15:20:10.213Z,12.43
2018-07-22T15:22:38.481Z,11.60
2018-07-22T15:25:07.490Z,12.77
2018-07-22T15:27:35.857Z,11.83
2018-07-22T15:30:05.500Z,12.70
2018-07-22T15:32:34.249Z,12.90
2018-07-22T15:35:05.143Z,12.43
2018-07-22T15:37:33.872Z,12.10
2018-07-22T15:40:02.385Z,14.33
2018-07-22T15:42:31.139Z,12.90
2018-07-22T15:44:59.634Z,12.70
2018-07-22T15:47:28.574Z,12.30
2018-07-22T15:49:56.986Z,13.27
2018-07-22T15:52:30.596Z,13.17
2018-07-22T15:54:58.641Z,13.63
2018-07-22T15:57:26.925Z,13.30
2018-07-22T15:59:55.929Z,13.57
2018-07-22T16:02:29.680Z,13.73
2018-07-22T16:04:57.914Z,14.20
2018-07-22T16:07:30.097Z,16.43
2018-07-22T16:09:58.125Z,15.30
2018-07-22T16:12:26.885Z,14.83
2018-07-22T16:14:55.096Z,12.40
2018-07-22T16:17:23.107Z,11.67
2018-07-22T16:19:51.631Z,12.07
2018-07-22T16:22:19.829Z,15.73
2018-07-22T16:24:47.864Z,14.80
2018-07-22T16:27:16.173Z,14.13
2018-07-22T16:29:48.145Z,12.47
2018-07-22T16:32:16.234Z,13.40
2018-07-22T16:34:46.898Z,12.80
2018-07-22T16:39:50.693Z,17.50
2018-07-22T16:42:18.748Z,13.28
2018-07-22T16:44:48.290Z,13.40
2018-07-22T16:47:16.522Z,13.27
2018-07-22T16:49:45.293Z,15.40
2018-07-22T16:52:13.642Z,10.90
2018-07-22T16:54:41.844Z,16.60
2018-07-22T16:59:44.507Z,12.90
2018-07-22T17:02:18.308Z,14.43
2018-07-22T17:04:46.886Z,13.80
2018-07-22T17:09:57.342Z,17.90
2018-07-22T17:12:25.621Z,16.00
2018-07-22T17:14:54.229Z,17.17
2018-07-22T17:17:22.307Z,18.10
2018-07-22T17:22:28.470Z,16.17
2018-07-22T17:24:56.718Z,20.73
2018-07-22T17:27:25.590Z,19.80
2018-07-22T17:29:55.595Z,18.23
2018-07-22T17:35:07.843Z,19.57
2018-07-22T17:37:43.618Z,20.93
2018-07-22T17:40:11.941Z,20.57
2018-07-22T17:42:40.239Z,19.63
2018-07-22T17:45:08.523Z,19.83
2018-07-22T17:47:36.668Z,16.23
2018-07-22T17:50:05.591Z,18.27
2018-07-22T17:52:35.833Z,18.23
2018-07-22T17:55:04.597Z,17.47
2018-07-22T17:57:35.235Z,16.93
2018-07-22T18:00:05.335Z,20.50
2018-07-22T18:02:35.492Z,18.83
2018-07-22T18:05:03.975Z,17.83
2018-07-22T18:07:32.728Z,18.00
2018-07-22T18:10:02.893Z,18.07
2018-07-22T18:12:32.917Z,16.43
2018-07-22T18:15:01.302Z,19.40
2018-07-22T18:17:30.179Z,18.10
2018-07-22T18:19:58.297Z,20.77
2018-07-22T18:22:26.670Z,16.50
2018-07-22T18:24:57.594Z,18.67
2018-07-22T18:27:30.406Z,17.97
2018-07-22T18:29:58.473Z,16.13
2018-07-22T18:32:33.024Z,16.50
2018-07-22T18:35:02.847Z,21.00
2018-07-22T18:37:37.053Z,20.50
2018-07-22T18:40:06.776Z,22.60
2018-07-22T18:42:41.057Z,21.20
2018-07-22T18:45:09.702Z,21.07
2018-07-22T18:47:38.779Z,18.80
2018-07-22T18:50:07.210Z,21.30
2018-07-22T18:52:41.322Z,18.13
2018-07-22T18:57:55.612Z,19.53
2018-07-22T19:03:00.548Z,19.93
2018-07-22T19:05:28.718Z,20.07
2018-07-22T19:08:01.530Z,19.73
2018-07-22T19:10:30.626Z,20.87
2018-07-22T19:12:58.839Z,18.80
2018-07-22T19:15:32.934Z,19.83
2018-07-22T19:18:03.261Z,18.30
2018-07-22T19:20:40.620Z,18.23
2018-07-22T19:26:09.629Z,16.73
2018-07-22T19:28:46.798Z,16.63
2018-07-22T19:31:15.872Z,19.43
2018-07-22T19:36:17.136Z,19.00
2018-07-22T19:38:45.277Z,17.50
2018-07-22T19:41:13.487Z,18.33
2018-07-22T19:43:41.722Z,18.77
2018-07-22T19:46:10.396Z,17.20
2018-07-22T19:48:38.696Z,19.97
2018-07-22T19:51:07.166Z,18.87
2018-07-22T19:53:35.807Z,20.93
2018-07-22T19:56:04.093Z,17.20
2018-07-22T19:58:32.506Z,18.13
2018-07-22T20:01:01.006Z,21.60
2018-07-22T20:03:30.434Z,19.07
2018-07-22T20:06:00.038Z,18.17
2018-07-22T20:08:36.831Z,18.77
2018-07-22T20:11:05.317Z,21.00
2018-07-22T20:13:33.771Z,16.43
2018-07-22T20:18:43.249Z,17.33
2018-07-22T20:21:12.931Z,18.57
2018-07-22T20:23:41.551Z,17.97
2018-07-22T20:26:09.748Z,17.77
2018-07-22T20:28:37.972Z,20.23
2018-07-22T20:31:08.231Z,18.77
2018-07-22T20:33:39.845Z,22.30
2018-07-22T20:36:09.386Z,18.80
2018-07-22T20:38:37.595Z,18.07
2018-07-22T20:41:06.116Z,18.60
2018-07-22T20:43:35.003Z,19.80
2018-07-22T20:46:03.662Z,21.13
2018-07-22T20:48:32.364Z,23.83
2018-07-22T20:51:02.294Z,23.60
2018-07-22T20:53:30.565Z,18.83
2018-07-22T20:56:00.249Z,23.30
2018-07-22T20:58:29.010Z,20.03
2018-07-22T21:00:59.660Z,19.27
2018-07-22T21:03:28.898Z,24.93
2018-07-22T21:05:58.296Z,23.77
2018-07-22T21:08:26.971Z,22.03
2018-07-22T21:10:58.466Z,24.13
2018-07-22T21:13:28.237Z,19.63
2018-07-22T21:15:56.371Z,22.40
2018-07-22T21:18:24.599Z,25.00
2018-07-22T21:20:52.776Z,19.83
2018-07-22T21:23:21.103Z,22.47
2018-07-22T21:25:49.178Z,23.33
2018-07-22T21:28:17.334Z,20.93
2018-07-22T21:30:45.886Z,25.00
2018-07-22T21:33:14.014Z,22.17
2018-07-22T21:35:42.402Z,22.40
2018-07-22T21:38:10.494Z,28.13
2018-07-22T21:40:39.156Z,25.07
2018-07-22T21:43:07.438Z,22.10
2018-07-22T21:45:35.772Z,28.13
2018-07-22T21:48:04.224Z,25.30
2018-07-22T21:50:32.470Z,24.03
2018-07-22T21:53:00.988Z,25.23
2018-07-22T21:55:29.199Z,23.87
2018-07-22T21:57:57.932Z,27.70
2018-07-22T22:00:32.082Z,25.30
2018-07-22T22:03:01.645Z,23.33
2018-07-22T22:05:30.270Z,26.03
2018-07-22T22:07:58.504Z,28.13
2018-07-22T22:10:26.878Z,29.80
2018-07-22T22:12:55.791Z,28.40
2018-07-22T22:15:26.192Z,30.97
2018-07-22T22:17:55.770Z,28.23
2018-07-22T22:20:23.751Z,29.07
2018-07-22T22:22:51.911Z,32.03
2018-07-22T22:25:20.061Z,28.20
2018-07-22T22:27:48.158Z,27.33
2018-07-22T22:30:16.884Z,24.57
2018-07-22T22:32:45.616Z,27.33
2018-07-22T22:35:14.494Z,24.13
2018-07-22T22:37:43.325Z,27.80
2018-07-22T22:40:12.210Z,30.20
2018-07-22T22:42:40.877Z,28.07
2018-07-22T22:45:08.951Z,30.43
2018-07-22T22:47:37.358Z,24.53
2018-07-22T22:50:05.684Z,23.30
2018-07-22T22:52:34.279Z,24.90
2018-07-22T22:55:02.971Z,26.57
2018-07-22T22:57:31.201Z,28.97
2018-07-22T22:59:59.340Z,27.87
2018-07-22T23:02:32.784Z,34.30
2018-07-22T23:05:01.044Z,32.00
2018-07-22T23:07:29.155Z,38.10
2018-07-22T23:09:57.292Z,27.30
2018-07-22T23:12:25.362Z,28.97
2018-07-22T23:14:53.372Z,28.73
2018-07-22T23:17:22.437Z,34.10
2018-07-22T23:19:50.767Z,24.17
2018-07-22T23:22:18.897Z,25.10
2018-07-22T23:24:46.911Z,26.17
2018-07-22T23:27:14.969Z,28.57
2018-07-22T23:29:44.201Z,31.57
2018-07-22T23:32:12.347Z,28.30
2018-07-22T23:34:40.505Z,31.37
2018-07-22T23:37:08.708Z,32.43
2018-07-22T23:39:36.865Z,29.20
2018-07-22T23:42:05.175Z,34.60
2018-07-22T23:44:33.358Z,29.43
2018-07-22T23:47:01.477Z,38.77
2018-07-22T23:49:29.521Z,33.70
2018-07-22T23:51:57.533Z,29.50
2018-07-22T23:54:25.593Z,41.03
2018-07-22T23:56:54.012Z,40.20
2018-07-22T23:59:22.060Z,27.20
